ODH weather

RAF Odiham
Odiham, England, United Kingdom

Public forecast

Using degrees Celsius for public forecast. Weather courtesy of forecast.io.

METAR (pilot weather report)

Retrieved 2019/04/25 19:50 UTC (2 hours ago):

EGVO 251950Z 16006KT 9999 FEW030 08/06 Q1003 BLU NOSIG

TAF (pilot weather forecast)

Retrieved 2019/04/25 21:33 UTC (0 seconds ago):

TAF TAF EGVO 251928Z 2521/2609 18006KT 9999 FEW030 TEMPO 2603/2609 SCT020 PROB30 TEMPO 2603/2609 7000 -RA BKN010